sensor_id;sensor_type;location;lat;lon;timestamp;P1;durP1;ratioP1;P2;durP2;ratioP2
80539;SDS011;69869;48.036;15.780;2023-10-19T00:02:04;8.27;;;7.57;;
80539;SDS011;69869;48.036;15.780;2023-10-19T00:04:32;6.97;;;6.38;;
80539;SDS011;69869;48.036;15.780;2023-10-19T00:07:00;7.40;;;6.80;;
80539;SDS011;69869;48.036;15.780;2023-10-19T00:09:26;7.50;;;6.90;;
80539;SDS011;69869;48.036;15.780;2023-10-19T00:12:00;7.50;;;6.90;;
80539;SDS011;69869;48.036;15.780;2023-10-19T00:14:27;7.85;;;7.15;;
80539;SDS011;69869;48.036;15.780;2023-10-19T00:16:53;7.55;;;6.95;;
80539;SDS011;69869;48.036;15.780;2023-10-19T00:19:24;7.53;;;6.93;;
80539;SDS011;69869;48.036;15.780;2023-10-19T00:21:52;7.25;;;6.65;;
80539;SDS011;69869;48.036;15.780;2023-10-19T00:24:27;7.80;;;7.10;;
80539;SDS011;69869;48.036;15.780;2023-10-19T00:26:56;7.43;;;6.82;;
80539;SDS011;69869;48.036;15.780;2023-10-19T00:29:22;7.28;;;6.70;;
80539;SDS011;69869;48.036;15.780;2023-10-19T00:31:58;7.63;;;6.93;;
80539;SDS011;69869;48.036;15.780;2023-10-19T00:34:25;7.68;;;7.07;;
80539;SDS011;69869;48.036;15.780;2023-10-19T00:36:54;7.68;;;7.00;;
80539;SDS011;69869;48.036;15.780;2023-10-19T00:39:32;7.45;;;6.80;;
80539;SDS011;69869;48.036;15.780;2023-10-19T00:42:15;7.50;;;6.90;;
80539;SDS011;69869;48.036;15.780;2023-10-19T00:44:45;7.68;;;6.97;;
80539;SDS011;69869;48.036;15.780;2023-10-19T00:47:15;7.57;;;6.97;;
80539;SDS011;69869;48.036;15.780;2023-10-19T00:49:44;7.65;;;6.95;;
80539;SDS011;69869;48.036;15.780;2023-10-19T00:52:11;7.40;;;6.80;;
80539;SDS011;69869;48.036;15.780;2023-10-19T00:54:44;7.68;;;7.03;;
80539;SDS011;69869;48.036;15.780;2023-10-19T00:57:14;6.70;;;6.18;;
80539;SDS011;69869;48.036;15.780;2023-10-19T00:59:45;7.75;;;7.05;;
80539;SDS011;69869;48.036;15.780;2023-10-19T01:02:25;6.85;;;6.25;;
80539;SDS011;69869;48.036;15.780;2023-10-19T01:04:52;7.10;;;6.50;;
80539;SDS011;69869;48.036;15.780;2023-10-19T01:07:22;7.13;;;6.53;;
80539;SDS011;69869;48.036;15.780;2023-10-19T01:09:51;7.75;;;7.05;;
80539;SDS011;69869;48.036;15.780;2023-10-19T01:12:19;7.88;;;7.22;;
80539;SDS011;69869;48.036;15.780;2023-10-19T01:17:38;7.50;;;6.90;;
80539;SDS011;69869;48.036;15.780;2023-10-19T01:25:33;7.53;;;6.93;;
80539;SDS011;69869;48.036;15.780;2023-10-19T01:28:23;6.87;;;6.37;;
80539;SDS011;69869;48.036;15.780;2023-10-19T01:31:09;7.43;;;6.75;;
80539;SDS011;69869;48.036;15.780;2023-10-19T01:33:42;7.20;;;6.60;;
80539;SDS011;69869;48.036;15.780;2023-10-19T01:36:11;7.32;;;6.72;;
80539;SDS011;69869;48.036;15.780;2023-10-19T01:39:00;7.18;;;6.57;;
80539;SDS011;69869;48.036;15.780;2023-10-19T01:41:27;7.40;;;6.80;;
80539;SDS011;69869;48.036;15.780;2023-10-19T01:43:55;7.75;;;7.05;;
80539;SDS011;69869;48.036;15.780;2023-10-19T01:46:29;7.22;;;6.63;;
80539;SDS011;69869;48.036;15.780;2023-10-19T01:48:58;7.35;;;6.65;;
80539;SDS011;69869;48.036;15.780;2023-10-19T01:51:27;7.20;;;6.60;;
80539;SDS011;69869;48.036;15.780;2023-10-19T01:53:57;7.88;;;7.18;;
80539;SDS011;69869;48.036;15.780;2023-10-19T01:56:24;7.18;;;6.57;;
80539;SDS011;69869;48.036;15.780;2023-10-19T01:58:49;7.13;;;6.53;;
80539;SDS011;69869;48.036;15.780;2023-10-19T02:01:23;7.00;;;6.40;;
80539;SDS011;69869;48.036;15.780;2023-10-19T02:03:52;7.45;;;6.80;;
80539;SDS011;69869;48.036;15.780;2023-10-19T02:08:59;6.97;;;6.45;;
80539;SDS011;69869;48.036;15.780;2023-10-19T02:11:41;7.47;;;6.88;;
80539;SDS011;69869;48.036;15.780;2023-10-19T02:14:07;8.02;;;7.32;;
80539;SDS011;69869;48.036;15.780;2023-10-19T02:16:40;7.03;;;6.43;;
80539;SDS011;69869;48.036;15.780;2023-10-19T02:19:12;7.43;;;6.82;;
80539;SDS011;69869;48.036;15.780;2023-10-19T02:21:38;7.05;;;6.45;;
80539;SDS011;69869;48.036;15.780;2023-10-19T02:24:08;7.50;;;6.85;;
80539;SDS011;69869;48.036;15.780;2023-10-19T02:26:39;6.90;;;6.30;;
80539;SDS011;69869;48.036;15.780;2023-10-19T02:29:05;7.30;;;6.70;;
80539;SDS011;69869;48.036;15.780;2023-10-19T02:31:39;6.70;;;6.10;;
80539;SDS011;69869;48.036;15.780;2023-10-19T02:34:09;6.63;;;6.13;;
80539;SDS011;69869;48.036;15.780;2023-10-19T02:36:37;6.80;;;6.20;;
80539;SDS011;69869;48.036;15.780;2023-10-19T02:39:05;7.57;;;6.97;;
80539;SDS011;69869;48.036;15.780;2023-10-19T02:41:34;7.15;;;6.47;;
80539;SDS011;69869;48.036;15.780;2023-10-19T02:44:04;7.38;;;6.78;;
80539;SDS011;69869;48.036;15.780;2023-10-19T02:46:34;7.10;;;6.50;;
80539;SDS011;69869;48.036;15.780;2023-10-19T02:49:04;7.07;;;6.47;;
80539;SDS011;69869;48.036;15.780;2023-10-19T02:51:36;7.32;;;6.72;;
80539;SDS011;69869;48.036;15.780;2023-10-19T02:54:02;6.78;;;6.22;;
80539;SDS011;69869;48.036;15.780;2023-10-19T02:56:28;6.85;;;6.35;;
80539;SDS011;69869;48.036;15.780;2023-10-19T02:58:57;7.00;;;6.40;;
80539;SDS011;69869;48.036;15.780;2023-10-19T03:01:32;7.60;;;7.00;;
80539;SDS011;69869;48.036;15.780;2023-10-19T03:03:59;7.40;;;6.78;;
80539;SDS011;69869;48.036;15.780;2023-10-19T03:06:26;7.80;;;7.20;;
80539;SDS011;69869;48.036;15.780;2023-10-19T03:08:59;6.97;;;6.38;;
80539;SDS011;69869;48.036;15.780;2023-10-19T03:11:29;7.15;;;6.53;;
80539;SDS011;69869;48.036;15.780;2023-10-19T03:13:57;7.47;;;6.78;;
80539;SDS011;69869;48.036;15.780;2023-10-19T03:16:23;7.32;;;6.68;;
80539;SDS011;69869;48.036;15.780;2023-10-19T03:18:49;7.60;;;6.90;;
80539;SDS011;69869;48.036;15.780;2023-10-19T03:21:18;7.53;;;6.82;;
80539;SDS011;69869;48.036;15.780;2023-10-19T03:23:51;7.65;;;7.00;;
80539;SDS011;69869;48.036;15.780;2023-10-19T03:26:21;7.82;;;7.13;;
80539;SDS011;69869;48.036;15.780;2023-10-19T03:31:24;7.30;;;6.70;;
80539;SDS011;69869;48.036;15.780;2023-10-19T03:33:52;7.50;;;6.90;;
80539;SDS011;69869;48.036;15.780;2023-10-19T03:36:24;7.53;;;6.82;;
80539;SDS011;69869;48.036;15.780;2023-10-19T03:38:51;7.85;;;7.15;;
80539;SDS011;69869;48.036;15.780;2023-10-19T03:41:19;7.78;;;7.07;;
80539;SDS011;69869;48.036;15.780;2023-10-19T03:43:53;7.78;;;7.18;;
80539;SDS011;69869;48.036;15.780;2023-10-19T03:46:22;7.72;;;7.03;;
80539;SDS011;69869;48.036;15.780;2023-10-19T03:48:54;7.75;;;7.10;;
80539;SDS011;69869;48.036;15.780;2023-10-19T03:51:24;7.50;;;6.80;;
80539;SDS011;69869;48.036;15.780;2023-10-19T03:53:51;7.68;;;6.90;;
80539;SDS011;69869;48.036;15.780;2023-10-19T03:56:20;7.63;;;6.93;;
80539;SDS011;69869;48.036;15.780;2023-10-19T03:58:46;7.78;;;7.07;;
80539;SDS011;69869;48.036;15.780;2023-10-19T04:01:15;7.55;;;6.95;;
80539;SDS011;69869;48.036;15.780;2023-10-19T04:03:42;8.13;;;7.32;;
80539;SDS011;69869;48.036;15.780;2023-10-19T04:06:09;7.57;;;6.85;;
80539;SDS011;69869;48.036;15.780;2023-10-19T04:08:39;8.20;;;7.40;;
80539;SDS011;69869;48.036;15.780;2023-10-19T04:11:06;7.68;;;6.97;;
80539;SDS011;69869;48.036;15.780;2023-10-19T04:13:37;7.88;;;7.18;;
80539;SDS011;69869;48.036;15.780;2023-10-19T04:16:03;7.35;;;6.75;;
80539;SDS011;69869;48.036;15.780;2023-10-19T04:18:33;7.72;;;7.03;;
80539;SDS011;69869;48.036;15.780;2023-10-19T04:21:00;7.47;;;6.78;;
80539;SDS011;69869;48.036;15.780;2023-10-19T04:23:28;7.68;;;7.00;;
80539;SDS011;69869;48.036;15.780;2023-10-19T04:25:54;7.68;;;6.97;;
80539;SDS011;69869;48.036;15.780;2023-10-19T04:28:23;7.65;;;6.95;;
80539;SDS011;69869;48.036;15.780;2023-10-19T04:30:58;8.18;;;7.38;;
80539;SDS011;69869;48.036;15.780;2023-10-19T04:33:31;7.65;;;6.95;;
80539;SDS011;69869;48.036;15.780;2023-10-19T04:35:59;7.60;;;6.93;;
80539;SDS011;69869;48.036;15.780;2023-10-19T04:38:26;7.90;;;7.20;;
80539;SDS011;69869;48.036;15.780;2023-10-19T04:40:53;8.25;;;7.45;;
80539;SDS011;69869;48.036;15.780;2023-10-19T04:43:18;7.18;;;6.57;;
80539;SDS011;69869;48.036;15.780;2023-10-19T04:45:46;6.85;;;6.30;;
80539;SDS011;69869;48.036;15.780;2023-10-19T04:48:12;7.03;;;6.43;;
80539;SDS011;69869;48.036;15.780;2023-10-19T04:50:37;7.70;;;7.00;;
80539;SDS011;69869;48.036;15.780;2023-10-19T04:53:04;6.90;;;6.32;;
80539;SDS011;69869;48.036;15.780;2023-10-19T04:55:30;7.25;;;6.65;;
80539;SDS011;69869;48.036;15.780;2023-10-19T04:57:56;7.32;;;6.63;;
80539;SDS011;69869;48.036;15.780;2023-10-19T05:00:22;7.07;;;6.47;;
80539;SDS011;69869;48.036;15.780;2023-10-19T05:02:49;7.30;;;6.70;;
80539;SDS011;69869;48.036;15.780;2023-10-19T05:05:17;7.22;;;6.55;;
80539;SDS011;69869;48.036;15.780;2023-10-19T05:07:43;7.30;;;6.70;;
80539;SDS011;69869;48.036;15.780;2023-10-19T05:10:09;7.32;;;6.63;;
80539;SDS011;69869;48.036;15.780;2023-10-19T05:12:36;7.30;;;6.57;;
80539;SDS011;69869;48.036;15.780;2023-10-19T05:15:01;7.20;;;6.60;;
80539;SDS011;69869;48.036;15.780;2023-10-19T05:17:27;7.30;;;6.60;;
80539;SDS011;69869;48.036;15.780;2023-10-19T05:19:53;7.07;;;6.47;;
80539;SDS011;69869;48.036;15.780;2023-10-19T05:22:18;7.00;;;6.40;;
80539;SDS011;69869;48.036;15.780;2023-10-19T05:24:44;7.43;;;6.82;;
80539;SDS011;69869;48.036;15.780;2023-10-19T05:27:10;7.22;;;6.60;;
80539;SDS011;69869;48.036;15.780;2023-10-19T05:29:37;7.20;;;6.60;;
80539;SDS011;69869;48.036;15.780;2023-10-19T05:32:04;7.28;;;6.60;;
80539;SDS011;69869;48.036;15.780;2023-10-19T05:34:30;7.00;;;6.40;;
80539;SDS011;69869;48.036;15.780;2023-10-19T05:36:59;6.72;;;6.22;;
80539;SDS011;69869;48.036;15.780;2023-10-19T05:39:27;7.00;;;6.30;;
80539;SDS011;69869;48.036;15.780;2023-10-19T05:41:53;7.30;;;6.70;;
80539;SDS011;69869;48.036;15.780;2023-10-19T05:44:20;7.35;;;6.75;;
80539;SDS011;69869;48.036;15.780;2023-10-19T05:46:45;6.57;;;6.00;;
80539;SDS011;69869;48.036;15.780;2023-10-19T05:49:12;7.07;;;6.47;;
80539;SDS011;69869;48.036;15.780;2023-10-19T05:51:38;7.30;;;6.70;;
80539;SDS011;69869;48.036;15.780;2023-10-19T05:54:04;6.95;;;6.35;;
80539;SDS011;69869;48.036;15.780;2023-10-19T05:56:30;6.97;;;6.20;;
80539;SDS011;69869;48.036;15.780;2023-10-19T05:58:57;7.82;;;7.13;;
80539;SDS011;69869;48.036;15.780;2023-10-19T06:01:23;7.03;;;6.43;;
80539;SDS011;69869;48.036;15.780;2023-10-19T06:03:49;6.95;;;6.35;;
80539;SDS011;69869;48.036;15.780;2023-10-19T06:06:15;7.10;;;6.50;;
80539;SDS011;69869;48.036;15.780;2023-10-19T06:08:41;7.50;;;6.90;;
80539;SDS011;69869;48.036;15.780;2023-10-19T06:11:07;7.10;;;6.50;;
80539;SDS011;69869;48.036;15.780;2023-10-19T06:13:32;7.43;;;6.72;;
80539;SDS011;69869;48.036;15.780;2023-10-19T06:15:58;6.55;;;5.97;;
80539;SDS011;69869;48.036;15.780;2023-10-19T06:18:24;7.25;;;6.65;;
80539;SDS011;69869;48.036;15.780;2023-10-19T06:20:49;7.13;;;6.53;;
80539;SDS011;69869;48.036;15.780;2023-10-19T06:23:16;7.35;;;6.65;;
80539;SDS011;69869;48.036;15.780;2023-10-19T06:25:43;7.43;;;6.72;;
80539;SDS011;69869;48.036;15.780;2023-10-19T06:28:09;7.53;;;6.82;;
80539;SDS011;69869;48.036;15.780;2023-10-19T06:30:36;7.05;;;6.45;;
80539;SDS011;69869;48.036;15.780;2023-10-19T06:33:02;7.40;;;6.70;;
80539;SDS011;69869;48.036;15.780;2023-10-19T06:35:29;7.70;;;7.00;;
80539;SDS011;69869;48.036;15.780;2023-10-19T06:37:59;6.67;;;6.07;;
80539;SDS011;69869;48.036;15.780;2023-10-19T06:40:26;7.22;;;6.53;;
80539;SDS011;69869;48.036;15.780;2023-10-19T06:42:54;7.70;;;7.00;;
80539;SDS011;69869;48.036;15.780;2023-10-19T06:45:21;7.80;;;7.10;;
80539;SDS011;69869;48.036;15.780;2023-10-19T06:47:47;7.75;;;6.88;;
80539;SDS011;69869;48.036;15.780;2023-10-19T06:50:15;8.02;;;7.22;;
80539;SDS011;69869;48.036;15.780;2023-10-19T06:52:43;7.55;;;6.85;;
80539;SDS011;69869;48.036;15.780;2023-10-19T06:55:11;7.97;;;7.07;;
80539;SDS011;69869;48.036;15.780;2023-10-19T06:57:44;7.45;;;6.75;;
80539;SDS011;69869;48.036;15.780;2023-10-19T07:00:13;7.90;;;7.10;;
80539;SDS011;69869;48.036;15.780;2023-10-19T07:02:47;8.07;;;7.30;;
80539;SDS011;69869;48.036;15.780;2023-10-19T07:05:14;7.55;;;6.85;;
80539;SDS011;69869;48.036;15.780;2023-10-19T07:07:44;7.30;;;6.70;;
80539;SDS011;69869;48.036;15.780;2023-10-19T07:10:11;7.60;;;6.90;;
80539;SDS011;69869;48.036;15.780;2023-10-19T07:12:38;7.22;;;6.63;;
80539;SDS011;69869;48.036;15.780;2023-10-19T07:15:07;7.30;;;6.65;;
80539;SDS011;69869;48.036;15.780;2023-10-19T07:17:36;7.80;;;7.10;;
80539;SDS011;69869;48.036;15.780;2023-10-19T07:20:05;7.68;;;7.07;;
80539;SDS011;69869;48.036;15.780;2023-10-19T07:22:33;8.50;;;7.70;;
80539;SDS011;69869;48.036;15.780;2023-10-19T07:25:02;7.80;;;7.10;;
80539;SDS011;69869;48.036;15.780;2023-10-19T07:27:33;8.55;;;7.40;;
80539;SDS011;69869;48.036;15.780;2023-10-19T07:29:59;8.32;;;7.53;;
80539;SDS011;69869;48.036;15.780;2023-10-19T07:32:33;8.05;;;7.25;;
80539;SDS011;69869;48.036;15.780;2023-10-19T07:34:58;8.63;;;7.80;;
80539;SDS011;69869;48.036;15.780;2023-10-19T07:37:24;8.75;;;7.95;;
80539;SDS011;69869;48.036;15.780;2023-10-19T07:39:49;7.93;;;7.20;;
80539;SDS011;69869;48.036;15.780;2023-10-19T07:42:17;7.88;;;7.03;;
80539;SDS011;69869;48.036;15.780;2023-10-19T07:44:43;8.40;;;7.60;;
80539;SDS011;69869;48.036;15.780;2023-10-19T07:47:10;8.57;;;7.68;;
80539;SDS011;69869;48.036;15.780;2023-10-19T07:49:37;8.57;;;7.78;;
80539;SDS011;69869;48.036;15.780;2023-10-19T07:52:06;8.73;;;7.90;;
80539;SDS011;69869;48.036;15.780;2023-10-19T07:54:35;8.60;;;7.80;;
80539;SDS011;69869;48.036;15.780;2023-10-19T07:57:01;8.57;;;7.78;;
80539;SDS011;69869;48.036;15.780;2023-10-19T07:59:33;8.50;;;7.70;;
80539;SDS011;69869;48.036;15.780;2023-10-19T08:01:59;9.07;;;8.18;;
80539;SDS011;69869;48.036;15.780;2023-10-19T08:04:27;9.13;;;8.20;;
80539;SDS011;69869;48.036;15.780;2023-10-19T08:06:53;8.73;;;7.82;;
80539;SDS011;69869;48.036;15.780;2023-10-19T08:09:20;8.68;;;7.88;;
80539;SDS011;69869;48.036;15.780;2023-10-19T08:11:50;8.63;;;7.82;;
80539;SDS011;69869;48.036;15.780;2023-10-19T08:14:21;9.38;;;8.35;;
80539;SDS011;69869;48.036;15.780;2023-10-19T08:16:50;8.90;;;8.00;;
80539;SDS011;69869;48.036;15.780;2023-10-19T08:19:16;9.48;;;8.55;;
80539;SDS011;69869;48.036;15.780;2023-10-19T08:21:43;8.38;;;7.57;;
80539;SDS011;69869;48.036;15.780;2023-10-19T08:24:09;9.18;;;8.27;;
80539;SDS011;69869;48.036;15.780;2023-10-19T08:26:41;8.90;;;8.07;;
80539;SDS011;69869;48.036;15.780;2023-10-19T08:29:07;9.05;;;8.15;;
80539;SDS011;69869;48.036;15.780;2023-10-19T08:31:38;9.05;;;8.15;;
80539;SDS011;69869;48.036;15.780;2023-10-19T08:34:09;8.32;;;7.50;;
80539;SDS011;69869;48.036;15.780;2023-10-19T08:36:36;9.02;;;8.13;;
80539;SDS011;69869;48.036;15.780;2023-10-19T08:39:05;8.02;;;7.32;;
80539;SDS011;69869;48.036;15.780;2023-10-19T08:41:35;9.13;;;8.23;;
80539;SDS011;69869;48.036;15.780;2023-10-19T08:44:06;9.73;;;8.73;;
80539;SDS011;69869;48.036;15.780;2023-10-19T08:46:42;8.98;;;8.07;;
80539;SDS011;69869;48.036;15.780;2023-10-19T08:49:12;9.27;;;8.38;;
80539;SDS011;69869;48.036;15.780;2023-10-19T08:51:39;8.75;;;7.95;;
80539;SDS011;69869;48.036;15.780;2023-10-19T08:54:09;8.85;;;7.95;;
80539;SDS011;69869;48.036;15.780;2023-10-19T08:56:39;9.43;;;8.52;;
80539;SDS011;69869;48.036;15.780;2023-10-19T08:59:06;8.27;;;7.57;;
80539;SDS011;69869;48.036;15.780;2023-10-19T09:01:32;9.18;;;8.13;;
80539;SDS011;69869;48.036;15.780;2023-10-19T09:04:00;8.25;;;7.45;;
80539;SDS011;69869;48.036;15.780;2023-10-19T09:06:26;8.65;;;7.78;;
80539;SDS011;69869;48.036;15.780;2023-10-19T09:08:56;8.77;;;7.90;;
80539;SDS011;69869;48.036;15.780;2023-10-19T09:11:23;8.40;;;7.57;;
80539;SDS011;69869;48.036;15.780;2023-10-19T09:13:52;8.88;;;8.00;;
80539;SDS011;69869;48.036;15.780;2023-10-19T09:16:19;8.85;;;8.05;;
80539;SDS011;69869;48.036;15.780;2023-10-19T09:18:48;9.23;;;8.32;;
80539;SDS011;69869;48.036;15.780;2023-10-19T09:21:19;8.90;;;8.00;;
80539;SDS011;69869;48.036;15.780;2023-10-19T09:23:52;9.25;;;8.35;;
80539;SDS011;69869;48.036;15.780;2023-10-19T09:26:19;8.10;;;7.35;;
80539;SDS011;69869;48.036;15.780;2023-10-19T09:28:47;8.98;;;8.07;;
80539;SDS011;69869;48.036;15.780;2023-10-19T09:31:14;8.80;;;7.90;;
80539;SDS011;69869;48.036;15.780;2023-10-19T09:33:41;8.75;;;7.95;;
80539;SDS011;69869;48.036;15.780;2023-10-19T09:36:11;8.70;;;7.90;;
80539;SDS011;69869;48.036;15.780;2023-10-19T09:38:38;8.18;;;7.15;;
80539;SDS011;69869;48.036;15.780;2023-10-19T09:41:15;8.57;;;7.70;;
80539;SDS011;69869;48.036;15.780;2023-10-19T09:43:44;8.60;;;7.80;;
80539;SDS011;69869;48.036;15.780;2023-10-19T09:46:11;7.78;;;7.07;;
80539;SDS011;69869;48.036;15.780;2023-10-19T09:48:47;8.23;;;7.50;;
80539;SDS011;69869;48.036;15.780;2023-10-19T09:51:14;8.18;;;7.47;;
80539;SDS011;69869;48.036;15.780;2023-10-19T09:53:43;8.18;;;7.47;;
80539;SDS011;69869;48.036;15.780;2023-10-19T09:56:38;7.75;;;7.05;;
80539;SDS011;69869;48.036;15.780;2023-10-19T09:59:29;8.10;;;7.30;;
80539;SDS011;69869;48.036;15.780;2023-10-19T10:02:09;8.10;;;7.35;;
80539;SDS011;69869;48.036;15.780;2023-10-19T10:04:40;8.73;;;7.93;;
80539;SDS011;69869;48.036;15.780;2023-10-19T10:07:08;8.43;;;7.55;;
80539;SDS011;69869;48.036;15.780;2023-10-19T10:09:38;8.57;;;7.78;;
80539;SDS011;69869;48.036;15.780;2023-10-19T10:14:55;7.93;;;7.22;;
80539;SDS011;69869;48.036;15.780;2023-10-19T10:17:32;8.40;;;7.60;;
80539;SDS011;69869;48.036;15.780;2023-10-19T10:22:40;8.27;;;7.57;;
80539;SDS011;69869;48.036;15.780;2023-10-19T10:25:27;8.10;;;7.30;;
80539;SDS011;69869;48.036;15.780;2023-10-19T10:27:54;9.05;;;8.15;;
80539;SDS011;69869;48.036;15.780;2023-10-19T10:30:20;8.60;;;7.70;;
80539;SDS011;69869;48.036;15.780;2023-10-19T10:32:47;8.15;;;7.38;;
80539;SDS011;69869;48.036;15.780;2023-10-19T10:38:09;7.65;;;6.95;;
80539;SDS011;69869;48.036;15.780;2023-10-19T10:40:44;8.27;;;7.47;;
80539;SDS011;69869;48.036;15.780;2023-10-19T10:43:11;8.18;;;7.38;;
80539;SDS011;69869;48.036;15.780;2023-10-19T10:45:37;7.55;;;6.85;;
80539;SDS011;69869;48.036;15.780;2023-10-19T10:48:02;8.27;;;7.47;;
80539;SDS011;69869;48.036;15.780;2023-10-19T10:50:29;7.63;;;6.93;;
80539;SDS011;69869;48.036;15.780;2023-10-19T10:52:54;7.60;;;6.90;;
80539;SDS011;69869;48.036;15.780;2023-10-19T10:55:23;7.78;;;7.07;;
80539;SDS011;69869;48.036;15.780;2023-10-19T10:57:50;7.75;;;7.05;;
80539;SDS011;69869;48.036;15.780;2023-10-19T11:00:16;7.88;;;7.18;;
80539;SDS011;69869;48.036;15.780;2023-10-19T11:02:46;7.95;;;7.25;;
80539;SDS011;69869;48.036;15.780;2023-10-19T11:05:14;7.85;;;7.13;;
80539;SDS011;69869;48.036;15.780;2023-10-19T11:07:46;7.60;;;6.90;;
80539;SDS011;69869;48.036;15.780;2023-10-19T11:10:38;7.90;;;7.20;;
80539;SDS011;69869;48.036;15.780;2023-10-19T11:13:05;7.80;;;7.10;;
80539;SDS011;69869;48.036;15.780;2023-10-19T11:15:36;7.50;;;6.80;;
80539;SDS011;69869;48.036;15.780;2023-10-19T11:18:03;7.35;;;6.75;;
80539;SDS011;69869;48.036;15.780;2023-10-19T11:20:32;7.13;;;6.53;;
80539;SDS011;69869;48.036;15.780;2023-10-19T11:22:58;7.43;;;6.72;;
80539;SDS011;69869;48.036;15.780;2023-10-19T11:25:27;7.45;;;6.80;;
80539;SDS011;69869;48.036;15.780;2023-10-19T11:27:54;7.75;;;7.05;;
80539;SDS011;69869;48.036;15.780;2023-10-19T11:30:27;7.47;;;6.88;;
80539;SDS011;69869;48.036;15.780;2023-10-19T11:32:57;7.40;;;6.70;;
80539;SDS011;69869;48.036;15.780;2023-10-19T11:35:23;7.82;;;7.13;;
80539;SDS011;69869;48.036;15.780;2023-10-19T11:37:51;7.28;;;6.68;;
80539;SDS011;69869;48.036;15.780;2023-10-19T11:40:19;7.80;;;7.00;;
80539;SDS011;69869;48.036;15.780;2023-10-19T11:42:49;8.00;;;7.28;;
80539;SDS011;69869;48.036;15.780;2023-10-19T11:45:15;8.00;;;7.30;;
80539;SDS011;69869;48.036;15.780;2023-10-19T11:47:42;9.60;;;7.15;;
80539;SDS011;69869;48.036;15.780;2023-10-19T11:50:08;7.50;;;6.80;;
80539;SDS011;69869;48.036;15.780;2023-10-19T11:52:37;7.40;;;6.68;;
80539;SDS011;69869;48.036;15.780;2023-10-19T11:55:03;7.93;;;7.20;;
80539;SDS011;69869;48.036;15.780;2023-10-19T11:57:30;8.25;;;7.45;;
80539;SDS011;69869;48.036;15.780;2023-10-19T11:59:56;7.57;;;6.88;;
80539;SDS011;69869;48.036;15.780;2023-10-19T12:02:24;7.53;;;6.82;;
80539;SDS011;69869;48.036;15.780;2023-10-19T12:04:50;8.00;;;7.20;;
80539;SDS011;69869;48.036;15.780;2023-10-19T12:07:15;8.18;;;7.38;;
80539;SDS011;69869;48.036;15.780;2023-10-19T12:09:41;7.93;;;7.13;;
80539;SDS011;69869;48.036;15.780;2023-10-19T12:12:07;7.82;;;7.13;;
80539;SDS011;69869;48.036;15.780;2023-10-19T12:14:34;7.15;;;6.53;;
80539;SDS011;69869;48.036;15.780;2023-10-19T12:17:01;7.43;;;6.72;;
80539;SDS011;69869;48.036;15.780;2023-10-19T12:19:30;7.47;;;6.88;;
80539;SDS011;69869;48.036;15.780;2023-10-19T12:21:56;7.53;;;6.93;;
80539;SDS011;69869;48.036;15.780;2023-10-19T12:24:22;7.88;;;7.18;;
80539;SDS011;69869;48.036;15.780;2023-10-19T12:26:48;7.07;;;6.47;;
80539;SDS011;69869;48.036;15.780;2023-10-19T12:29:15;7.75;;;7.05;;
80539;SDS011;69869;48.036;15.780;2023-10-19T12:31:44;7.80;;;7.10;;
80539;SDS011;69869;48.036;15.780;2023-10-19T12:34:09;7.78;;;7.07;;
80539;SDS011;69869;48.036;15.780;2023-10-19T12:36:36;8.40;;;7.60;;
80539;SDS011;69869;48.036;15.780;2023-10-19T12:39:02;7.95;;;7.25;;
80539;SDS011;69869;48.036;15.780;2023-10-19T12:41:30;7.45;;;6.75;;
80539;SDS011;69869;48.036;15.780;2023-10-19T12:43:56;6.80;;;6.20;;
80539;SDS011;69869;48.036;15.780;2023-10-19T12:46:23;7.43;;;6.72;;
80539;SDS011;69869;48.036;15.780;2023-10-19T12:48:55;7.65;;;7.03;;
80539;SDS011;69869;48.036;15.780;2023-10-19T12:51:24;6.95;;;6.38;;
80539;SDS011;69869;48.036;15.780;2023-10-19T12:53:51;7.07;;;6.47;;
80539;SDS011;69869;48.036;15.780;2023-10-19T12:56:17;7.00;;;6.40;;
80539;SDS011;69869;48.036;15.780;2023-10-19T12:58:43;7.40;;;6.70;;
80539;SDS011;69869;48.036;15.780;2023-10-19T13:01:09;7.40;;;6.80;;
80539;SDS011;69869;48.036;15.780;2023-10-19T13:03:41;7.25;;;6.65;;
80539;SDS011;69869;48.036;15.780;2023-10-19T13:06:10;7.07;;;6.47;;
80539;SDS011;69869;48.036;15.780;2023-10-19T13:08:37;7.65;;;6.93;;
80539;SDS011;69869;48.036;15.780;2023-10-19T13:11:05;7.13;;;6.53;;
80539;SDS011;69869;48.036;15.780;2023-10-19T13:13:32;7.15;;;6.55;;
80539;SDS011;69869;48.036;15.780;2023-10-19T13:15:57;7.72;;;6.97;;
80539;SDS011;69869;48.036;15.780;2023-10-19T13:18:24;7.45;;;6.75;;
80539;SDS011;69869;48.036;15.780;2023-10-19T13:20:53;7.07;;;6.47;;
80539;SDS011;69869;48.036;15.780;2023-10-19T13:23:19;8.07;;;7.38;;
80539;SDS011;69869;48.036;15.780;2023-10-19T13:25:49;7.28;;;6.68;;
80539;SDS011;69869;48.036;15.780;2023-10-19T13:28:16;7.30;;;6.70;;
80539;SDS011;69869;48.036;15.780;2023-10-19T13:30:45;8.20;;;7.40;;
80539;SDS011;69869;48.036;15.780;2023-10-19T13:33:15;7.47;;;6.78;;
80539;SDS011;69869;48.036;15.780;2023-10-19T13:35:42;7.97;;;7.25;;
80539;SDS011;69869;48.036;15.780;2023-10-19T13:38:09;7.05;;;6.45;;
80539;SDS011;69869;48.036;15.780;2023-10-19T13:40:36;7.38;;;6.78;;
80539;SDS011;69869;48.036;15.780;2023-10-19T13:43:03;7.13;;;6.53;;
80539;SDS011;69869;48.036;15.780;2023-10-19T13:45:35;7.45;;;6.85;;
80539;SDS011;69869;48.036;15.780;2023-10-19T13:48:05;6.80;;;6.20;;
80539;SDS011;69869;48.036;15.780;2023-10-19T13:50:31;6.82;;;6.22;;
80539;SDS011;69869;48.036;15.780;2023-10-19T13:52:59;6.97;;;6.38;;
80539;SDS011;69869;48.036;15.780;2023-10-19T13:55:30;7.40;;;6.70;;
80539;SDS011;69869;48.036;15.780;2023-10-19T13:57:56;6.78;;;6.18;;
80539;SDS011;69869;48.036;15.780;2023-10-19T14:00:23;6.80;;;6.20;;
80539;SDS011;69869;48.036;15.780;2023-10-19T14:02:50;6.70;;;6.10;;
80539;SDS011;69869;48.036;15.780;2023-10-19T14:05:17;6.88;;;6.32;;
80539;SDS011;69869;48.036;15.780;2023-10-19T14:07:44;6.85;;;6.25;;
80539;SDS011;69869;48.036;15.780;2023-10-19T14:10:12;6.68;;;6.18;;
80539;SDS011;69869;48.036;15.780;2023-10-19T14:12:39;6.80;;;6.20;;
80539;SDS011;69869;48.036;15.780;2023-10-19T14:15:08;7.00;;;6.40;;
80539;SDS011;69869;48.036;15.780;2023-10-19T14:17:42;6.55;;;5.95;;
80539;SDS011;69869;48.036;15.780;2023-10-19T14:20:11;6.50;;;5.90;;
80539;SDS011;69869;48.036;15.780;2023-10-19T14:22:48;6.95;;;6.38;;
80539;SDS011;69869;48.036;15.780;2023-10-19T14:25:15;6.50;;;5.90;;
80539;SDS011;69869;48.036;15.780;2023-10-19T14:27:44;7.18;;;6.57;;
80539;SDS011;69869;48.036;15.780;2023-10-19T14:30:11;6.18;;;5.68;;
80539;SDS011;69869;48.036;15.780;2023-10-19T14:32:42;6.65;;;6.10;;
80539;SDS011;69869;48.036;15.780;2023-10-19T14:35:12;6.25;;;5.75;;
80539;SDS011;69869;48.036;15.780;2023-10-19T14:37:40;6.55;;;5.95;;
80539;SDS011;69869;48.036;15.780;2023-10-19T14:42:39;6.88;;;6.18;;
80539;SDS011;69869;48.036;15.780;2023-10-19T14:45:08;6.45;;;5.88;;
80539;SDS011;69869;48.036;15.780;2023-10-19T14:47:38;6.38;;;5.88;;
80539;SDS011;69869;48.036;15.780;2023-10-19T14:50:10;7.13;;;6.43;;
80539;SDS011;69869;48.036;15.780;2023-10-19T14:52:37;6.75;;;6.15;;
80539;SDS011;69869;48.036;15.780;2023-10-19T14:55:04;6.40;;;5.88;;
80539;SDS011;69869;48.036;15.780;2023-10-19T14:57:31;6.22;;;5.72;;
80539;SDS011;69869;48.036;15.780;2023-10-19T14:59:58;6.15;;;5.65;;
80539;SDS011;69869;48.036;15.780;2023-10-19T15:02:34;6.25;;;5.75;;
80539;SDS011;69869;48.036;15.780;2023-10-19T15:05:00;6.85;;;6.25;;
80539;SDS011;69869;48.036;15.780;2023-10-19T15:07:29;6.25;;;5.75;;